createdAt,value
2019-05-11T00:01:41.899Z,76.80
2019-05-11T00:04:10.879Z,76.70
2019-05-11T00:06:39.974Z,76.10
2019-05-11T00:09:09.099Z,76.10
2019-05-11T00:11:38.404Z,76.60
2019-05-11T00:14:07.394Z,76.50
2019-05-11T00:16:36.356Z,76.80
2019-05-11T00:19:05.355Z,76.90
2019-05-11T00:21:34.319Z,76.80
2019-05-11T00:24:03.349Z,76.40
2019-05-11T00:26:32.323Z,77.40
2019-05-11T00:29:01.295Z,77.20
2019-05-11T00:31:30.323Z,77.40
2019-05-11T00:33:59.354Z,77.10
2019-05-11T00:36:28.339Z,76.10
2019-05-11T00:38:57.400Z,77.10
2019-05-11T00:41:26.464Z,77.60
2019-05-11T00:43:57.386Z,78.70
2019-05-11T00:46:26.409Z,78.40
2019-05-11T00:48:55.443Z,77.90
2019-05-11T00:51:24.427Z,77.70
2019-05-11T00:53:53.871Z,77.30
2019-05-11T00:56:22.889Z,77.60
2019-05-11T00:58:51.929Z,77.40
2019-05-11T01:01:20.966Z,77.30
2019-05-11T01:03:49.952Z,77.00
2019-05-11T01:06:18.932Z,76.80
2019-05-11T01:08:48.088Z,77.70
2019-05-11T01:11:17.180Z,77.20
2019-05-11T01:13:46.441Z,77.20
2019-05-11T01:16:15.429Z,77.30
2019-05-11T01:18:44.477Z,77.60
2019-05-11T01:21:13.473Z,77.60
2019-05-11T01:23:42.464Z,77.20
2019-05-11T01:26:11.521Z,77.30
2019-05-11T01:28:40.557Z,77.90
2019-05-11T01:31:09.913Z,77.90
2019-05-11T01:33:38.922Z,77.40
2019-05-11T01:36:07.973Z,77.00
2019-05-11T01:38:37.016Z,77.20
2019-05-11T01:41:06.215Z,77.90
2019-05-11T01:43:35.187Z,77.70
2019-05-11T01:46:04.422Z,77.70
2019-05-11T01:48:33.530Z,76.70
2019-05-11T01:51:02.506Z,77.30
2019-05-11T01:53:31.561Z,77.30
2019-05-11T01:56:00.526Z,76.60
2019-05-11T01:58:29.578Z,77.40
2019-05-11T02:00:58.545Z,77.50
2019-05-11T02:03:27.513Z,77.40
2019-05-11T02:05:56.573Z,77.80
2019-05-11T02:08:25.606Z,78.40
2019-05-11T02:10:54.577Z,77.50
2019-05-11T02:13:23.662Z,77.30
2019-05-11T02:15:52.695Z,76.90
2019-05-11T02:18:21.694Z,77.50
2019-05-11T02:20:50.721Z,77.30
2019-05-11T02:23:19.809Z,77.10
2019-05-11T02:25:48.870Z,78.10
2019-05-11T02:28:17.906Z,78.70
2019-05-11T02:30:47.326Z,78.30
2019-05-11T02:33:16.369Z,77.80
2019-05-11T02:35:45.712Z,77.30
2019-05-11T02:38:14.670Z,77.20
2019-05-11T02:40:43.698Z,76.50
2019-05-11T02:43:12.882Z,76.50
2019-05-11T02:45:42.697Z,77.00
2019-05-11T02:48:12.556Z,76.30
2019-05-11T02:50:42.046Z,76.50
2019-05-11T02:53:11.105Z,77.20
2019-05-11T02:55:41.071Z,76.90
2019-05-11T02:58:10.206Z,77.10
2019-05-11T03:00:41.316Z,76.30
2019-05-11T03:03:10.622Z,76.00
2019-05-11T03:05:39.807Z,76.80
2019-05-11T03:08:08.838Z,76.50
2019-05-11T03:10:38.048Z,75.90
2019-05-11T03:13:07.174Z,76.30
2019-05-11T03:15:36.290Z,76.70
2019-05-11T03:18:05.333Z,77.30
2019-05-11T03:20:34.378Z,78.10
2019-05-11T03:23:03.427Z,78.40
2019-05-11T03:25:32.463Z,78.50
2019-05-11T03:28:01.802Z,78.30
2019-05-11T03:30:30.843Z,78.00
2019-05-11T03:33:00.185Z,77.80
2019-05-11T03:35:29.498Z,78.10
2019-05-11T03:37:58.464Z,77.70
2019-05-11T03:40:27.443Z,77.90
2019-05-11T03:42:56.768Z,77.60
2019-05-11T03:45:25.759Z,77.50
2019-05-11T03:47:54.791Z,78.50
2019-05-11T03:50:23.775Z,78.10
2019-05-11T03:52:52.807Z,78.80
2019-05-11T03:55:21.837Z,79.00
2019-05-11T03:57:50.876Z,79.40
2019-05-11T04:00:20.248Z,79.90
2019-05-11T04:02:49.236Z,79.50
2019-05-11T04:05:18.206Z,78.80
2019-05-11T04:07:47.380Z,77.00
2019-05-11T04:10:16.492Z,76.90
2019-05-11T04:12:45.524Z,77.50
2019-05-11T04:15:14.872Z,77.00
2019-05-11T04:17:43.895Z,77.00
2019-05-11T04:20:13.081Z,78.50
2019-05-11T04:22:42.034Z,77.90
2019-05-11T04:25:11.172Z,77.30
2019-05-11T04:27:40.137Z,77.40
2019-05-11T04:30:09.315Z,77.20
2019-05-11T04:32:38.380Z,78.30
2019-05-11T04:35:07.549Z,77.70
2019-05-11T04:37:36.550Z,78.20
2019-05-11T04:40:06.615Z,77.60
2019-05-11T04:42:53.413Z,77.50
2019-05-11T04:45:07.946Z,76.90
2019-05-11T04:47:36.999Z,76.70
2019-05-11T04:50:07.607Z,77.60
2019-05-11T04:52:36.582Z,77.30
2019-05-11T04:55:05.895Z,77.60
2019-05-11T04:57:35.334Z,77.90
2019-05-11T05:00:05.809Z,77.80
2019-05-11T05:02:34.941Z,77.20
2019-05-11T05:05:05.485Z,76.60
2019-05-11T05:07:34.771Z,76.40
2019-05-11T05:10:04.722Z,77.30
2019-05-11T05:12:33.686Z,78.10
2019-05-11T05:15:02.768Z,77.80
2019-05-11T05:17:31.809Z,78.20
2019-05-11T05:20:00.851Z,78.50
2019-05-11T05:22:29.904Z,78.20
2019-05-11T05:24:59.175Z,78.10
2019-05-11T05:27:28.315Z,78.80
2019-05-11T05:29:57.343Z,79.20
2019-05-11T05:32:26.305Z,79.20
2019-05-11T05:34:55.276Z,80.20
2019-05-11T05:37:24.618Z,79.80
2019-05-11T05:39:54.113Z,79.30
2019-05-11T05:42:23.416Z,79.40
2019-05-11T05:44:52.373Z,79.10
2019-05-11T05:47:21.445Z,78.90
2019-05-11T05:49:50.489Z,79.70
2019-05-11T05:52:19.478Z,79.70
2019-05-11T05:54:48.455Z,79.10
2019-05-11T05:57:17.463Z,79.10
2019-05-11T05:59:46.506Z,78.90
2019-05-11T06:02:15.544Z,77.80
2019-05-11T06:04:44.515Z,77.10
2019-05-11T06:07:13.473Z,77.80
2019-05-11T06:09:42.540Z,77.70
2019-05-11T06:12:11.807Z,78.10
2019-05-11T06:14:40.838Z,77.90
2019-05-11T06:17:10.090Z,79.30
2019-05-11T06:19:39.400Z,79.30
2019-05-11T06:22:08.394Z,79.20
2019-05-11T06:24:37.432Z,77.70
2019-05-11T06:27:06.421Z,77.30
2019-05-11T06:29:35.463Z,77.50
2019-05-11T06:32:04.784Z,77.40
2019-05-11T06:34:33.775Z,77.20
2019-05-11T06:37:02.736Z,77.40
2019-05-11T06:39:31.701Z,76.20
2019-05-11T06:42:00.978Z,77.10
2019-05-11T06:44:30.023Z,76.10
2019-05-11T06:46:59.096Z,76.60
2019-05-11T06:49:28.536Z,76.60
2019-05-11T06:51:57.502Z,76.30
2019-05-11T06:54:26.505Z,77.10
2019-05-11T06:56:55.587Z,76.60
2019-05-11T06:59:24.608Z,75.50
2019-05-11T07:01:53.575Z,75.40
2019-05-11T07:04:22.544Z,74.50
2019-05-11T07:06:51.528Z,74.60
2019-05-11T07:09:20.495Z,74.10
2019-05-11T07:11:49.548Z,76.00
2019-05-11T07:14:21.077Z,75.40
2019-05-11T07:16:49.469Z,77.60
2019-05-11T07:19:18.769Z,74.80
2019-05-11T07:21:47.717Z,70.20
2019-05-11T07:24:16.977Z,69.20
2019-05-11T07:26:46.046Z,69.10
2019-05-11T07:29:15.003Z,68.00
2019-05-11T07:31:43.962Z,68.50
2019-05-11T07:34:13.036Z,66.20
2019-05-11T07:36:41.996Z,65.50
2019-05-11T07:39:11.047Z,65.10
2019-05-11T07:41:40.021Z,65.10
2019-05-11T07:44:10.006Z,67.60
2019-05-11T07:46:39.465Z,64.30
2019-05-11T07:49:08.824Z,64.60
2019-05-11T07:51:38.913Z,64.80
2019-05-11T07:54:08.528Z,62.20
2019-05-11T07:56:39.022Z,61.50
2019-05-11T07:59:08.504Z,61.70
2019-05-11T08:01:38.696Z,62.70
2019-05-11T08:04:08.006Z,63.30
2019-05-11T08:06:39.063Z,63.70
2019-05-11T08:09:08.559Z,64.30
2019-05-11T08:11:38.932Z,60.40
2019-05-11T08:14:08.295Z,60.30
2019-05-11T08:16:39.097Z,61.40
2019-05-11T08:19:10.709Z,59.30
2019-05-11T08:21:40.112Z,59.70
2019-05-11T08:24:09.328Z,60.00
2019-05-11T08:26:38.787Z,60.60
2019-05-11T08:29:08.235Z,62.10
2019-05-11T08:31:38.477Z,61.90
2019-05-11T08:34:08.874Z,58.70
2019-05-11T08:36:38.079Z,59.10
2019-05-11T08:39:07.984Z,58.40
2019-05-11T08:41:38.418Z,60.20
2019-05-11T08:44:08.979Z,57.40
2019-05-11T08:46:38.764Z,55.80
2019-05-11T08:49:08.792Z,55.40
2019-05-11T08:51:38.660Z,54.80
2019-05-11T08:54:09.073Z,54.80
2019-05-11T08:56:38.736Z,54.60
2019-05-11T08:59:08.216Z,55.50
2019-05-11T09:01:39.362Z,56.30
2019-05-11T09:04:09.011Z,59.60
2019-05-11T09:06:38.291Z,54.60
2019-05-11T09:09:08.875Z,55.90
2019-05-11T09:11:38.897Z,55.90
2019-05-11T09:14:08.428Z,55.10
2019-05-11T09:16:38.490Z,55.20
2019-05-11T09:19:08.742Z,56.30
2019-05-11T09:21:38.517Z,57.70
2019-05-11T09:24:08.478Z,54.90
2019-05-11T09:26:38.863Z,54.40
2019-05-11T09:29:08.813Z,55.30
2019-05-11T09:31:38.349Z,51.30
2019-05-11T09:34:09.056Z,47.90
2019-05-11T09:36:38.840Z,52.80
2019-05-11T09:39:08.872Z,50.00
2019-05-11T09:41:38.391Z,46.50
2019-05-11T09:44:08.940Z,46.30
2019-05-11T09:46:38.598Z,47.00
2019-05-11T09:49:08.177Z,47.00
2019-05-11T09:51:38.247Z,49.00
2019-05-11T09:54:08.090Z,49.50
2019-05-11T09:56:38.133Z,47.50
2019-05-11T09:59:08.867Z,48.20
2019-05-11T10:01:38.290Z,49.70
2019-05-11T10:04:08.964Z,46.90
2019-05-11T10:06:38.994Z,44.30
2019-05-11T10:09:08.599Z,47.40
2019-05-11T10:11:39.670Z,46.00
2019-05-11T10:14:08.571Z,48.00
2019-05-11T10:16:38.631Z,50.00
2019-05-11T10:19:08.597Z,48.30
2019-05-11T10:21:38.586Z,45.40
2019-05-11T10:24:08.474Z,45.00
2019-05-11T10:26:38.497Z,46.30
2019-05-11T10:29:08.019Z,49.20
2019-05-11T10:31:38.601Z,44.60
2019-05-11T10:34:08.635Z,40.20
2019-05-11T10:36:38.619Z,44.10
2019-05-11T10:39:09.001Z,42.30
2019-05-11T10:41:38.749Z,45.30
2019-05-11T10:44:08.325Z,44.80
2019-05-11T10:46:38.164Z,42.80
2019-05-11T10:49:08.140Z,43.70
2019-05-11T10:51:38.363Z,42.90
2019-05-11T10:54:08.662Z,41.80
2019-05-11T10:56:38.823Z,40.10
2019-05-11T10:59:08.231Z,42.80
2019-05-11T11:01:38.069Z,42.60
2019-05-11T11:04:08.065Z,42.00
2019-05-11T11:06:38.655Z,40.70
2019-05-11T11:09:09.862Z,44.10
2019-05-11T11:11:38.816Z,45.10
2019-05-11T11:14:08.698Z,47.10
2019-05-11T11:16:42.428Z,43.00
2019-05-11T11:19:08.722Z,42.70
2019-05-11T11:21:38.334Z,40.20
2019-05-11T11:24:07.808Z,38.90
2019-05-11T11:26:38.148Z,37.80
2019-05-11T11:29:08.563Z,37.20
2019-05-11T11:31:38.114Z,44.10
2019-05-11T11:34:08.297Z,42.00
2019-05-11T11:36:37.734Z,37.20
2019-05-11T11:39:08.488Z,35.20
2019-05-11T11:41:38.126Z,35.50
2019-05-11T11:44:07.858Z,36.00
2019-05-11T11:46:50.766Z,35.90
2019-05-11T11:49:08.486Z,36.90
2019-05-11T11:51:38.002Z,34.80
2019-05-11T11:54:08.704Z,36.00
2019-05-11T11:56:38.145Z,38.30
2019-05-11T11:59:08.490Z,40.20
2019-05-11T12:01:38.499Z,37.90
2019-05-11T12:04:08.212Z,37.50
2019-05-11T12:06:38.672Z,40.70
2019-05-11T12:09:09.081Z,36.10
2019-05-11T12:11:38.311Z,33.50
2019-05-11T12:14:08.677Z,39.90
2019-05-11T12:16:38.806Z,38.70
2019-05-11T12:19:08.517Z,35.80
2019-05-11T12:21:38.086Z,36.70
2019-05-11T12:24:08.141Z,38.80
2019-05-11T12:26:38.857Z,36.70
2019-05-11T12:29:08.300Z,35.00
2019-05-11T12:31:38.065Z,33.60
2019-05-11T12:34:08.771Z,33.70
2019-05-11T12:36:38.651Z,34.30
2019-05-11T12:39:08.613Z,38.80
2019-05-11T12:41:38.755Z,37.90
2019-05-11T12:44:08.363Z,38.50
2019-05-11T12:46:39.556Z,37.90
2019-05-11T12:49:08.382Z,40.50
2019-05-11T12:51:38.280Z,35.80
2019-05-11T12:54:08.276Z,36.50
2019-05-11T12:56:38.445Z,36.40
2019-05-11T12:59:08.220Z,36.70
2019-05-11T13:01:38.236Z,35.80
2019-05-11T13:04:09.011Z,37.70
2019-05-11T13:06:38.631Z,37.40
2019-05-11T13:09:08.640Z,36.20
2019-05-11T13:11:38.074Z,36.50
2019-05-11T13:14:08.089Z,38.20
2019-05-11T13:16:38.062Z,37.30
2019-05-11T13:19:08.321Z,36.10
2019-05-11T13:21:38.397Z,37.90
2019-05-11T13:24:08.355Z,35.90
2019-05-11T13:26:38.206Z,35.40
2019-05-11T13:29:07.925Z,36.60
2019-05-11T13:31:38.384Z,36.20
2019-05-11T13:34:08.321Z,36.20
2019-05-11T13:36:38.233Z,36.50
2019-05-11T13:39:08.874Z,36.20
2019-05-11T13:41:38.470Z,34.60
2019-05-11T13:44:07.937Z,35.10
2019-05-11T13:46:38.913Z,34.20
2019-05-11T13:49:08.566Z,33.80
2019-05-11T13:51:38.870Z,33.80
2019-05-11T13:54:08.275Z,35.40
2019-05-11T13:56:38.048Z,35.70
2019-05-11T13:59:10.544Z,35.20
2019-05-11T14:01:39.241Z,35.40
2019-05-11T14:04:08.721Z,34.80
2019-05-11T14:06:37.982Z,36.00
2019-05-11T14:09:08.548Z,35.00
2019-05-11T14:11:39.076Z,35.10
2019-05-11T14:14:08.561Z,33.60
2019-05-11T14:16:38.040Z,34.10
2019-05-11T14:19:08.695Z,37.10
2019-05-11T14:21:38.632Z,35.50
2019-05-11T14:24:08.066Z,35.90
2019-05-11T14:26:38.564Z,36.50
2019-05-11T14:29:08.708Z,38.30
2019-05-11T14:31:38.712Z,35.00
2019-05-11T14:34:09.115Z,35.10
2019-05-11T14:36:38.806Z,37.30
2019-05-11T14:39:08.779Z,38.30
2019-05-11T14:41:38.294Z,36.80
2019-05-11T14:44:08.936Z,38.00
2019-05-11T14:46:38.524Z,37.90
2019-05-11T14:49:08.165Z,38.40
2019-05-11T14:51:39.176Z,38.20
2019-05-11T14:54:08.330Z,40.00
2019-05-11T14:56:38.238Z,40.40
2019-05-11T14:59:08.886Z,37.70
2019-05-11T15:01:38.383Z,38.10
2019-05-11T15:04:09.014Z,38.20
2019-05-11T15:06:38.756Z,40.50
2019-05-11T15:09:08.587Z,37.80
2019-05-11T15:11:38.786Z,39.10
2019-05-11T15:14:08.384Z,38.70
2019-05-11T15:16:38.372Z,40.80
2019-05-11T15:19:08.219Z,39.70
2019-05-11T15:21:38.658Z,40.70
2019-05-11T15:24:09.073Z,40.50
2019-05-11T15:26:38.437Z,39.80
2019-05-11T15:29:08.287Z,38.40
2019-05-11T15:31:38.076Z,41.20
2019-05-11T15:34:08.650Z,38.50
2019-05-11T15:36:38.718Z,39.10
2019-05-11T15:39:08.463Z,39.40
2019-05-11T15:41:38.889Z,38.90
2019-05-11T15:44:11.815Z,37.40
2019-05-11T15:46:39.202Z,40.20
2019-05-11T15:49:08.867Z,38.80
2019-05-11T15:51:41.080Z,38.60
2019-05-11T15:54:08.789Z,39.10
2019-05-11T15:56:38.567Z,40.50
2019-05-11T15:59:08.747Z,39.30
2019-05-11T16:01:41.215Z,40.70
2019-05-11T16:04:09.425Z,40.20
2019-05-11T16:06:38.451Z,39.90
2019-05-11T16:09:08.553Z,41.40
2019-05-11T16:11:38.847Z,39.50
2019-05-11T16:14:08.888Z,40.00
2019-05-11T16:16:39.023Z,40.90
2019-05-11T16:19:13.843Z,40.80
2019-05-11T16:21:39.126Z,41.80
2019-05-11T16:24:08.328Z,42.10
2019-05-11T16:26:37.410Z,41.90
2019-05-11T16:29:08.508Z,43.10
2019-05-11T16:31:37.868Z,43.70
2019-05-11T16:34:08.081Z,44.00
2019-05-11T16:36:38.866Z,44.40
2019-05-11T16:39:10.335Z,44.90
2019-05-11T16:41:38.949Z,45.80
2019-05-11T16:44:08.108Z,44.90
2019-05-11T16:46:38.966Z,46.00
2019-05-11T16:49:10.689Z,45.70
2019-05-11T16:51:38.993Z,45.10
2019-05-11T16:54:08.480Z,45.60
2019-05-11T16:56:38.248Z,45.40
2019-05-11T16:59:08.152Z,45.60
2019-05-11T17:01:38.098Z,47.20
2019-05-11T17:04:07.354Z,47.10
2019-05-11T17:06:38.569Z,48.20
2019-05-11T17:09:08.914Z,49.30
2019-05-11T17:11:38.635Z,53.50
2019-05-11T17:14:08.452Z,51.40
2019-05-11T17:16:38.589Z,52.60
2019-05-11T17:19:08.314Z,51.70
2019-05-11T17:21:38.040Z,52.80
2019-05-11T17:24:07.718Z,50.80
2019-05-11T17:26:38.600Z,50.60
2019-05-11T17:29:09.862Z,51.70
2019-05-11T17:31:38.490Z,50.50
2019-05-11T17:34:08.973Z,49.40
2019-05-11T17:36:38.179Z,49.80
2019-05-11T17:39:08.228Z,50.20
2019-05-11T17:41:38.638Z,50.00
2019-05-11T17:44:08.380Z,48.50
2019-05-11T17:46:38.498Z,49.00
2019-05-11T17:49:07.994Z,48.60
2019-05-11T17:51:37.972Z,49.30
2019-05-11T17:54:07.928Z,48.70
2019-05-11T17:56:38.848Z,48.70
2019-05-11T17:59:08.376Z,48.90
2019-05-11T18:01:37.332Z,49.80
2019-05-11T18:04:08.084Z,49.30
2019-05-11T18:06:38.473Z,49.00
2019-05-11T18:09:08.688Z,49.40
2019-05-11T18:11:38.099Z,50.00
2019-05-11T18:14:08.429Z,50.90
2019-05-11T18:16:37.544Z,49.50
2019-05-11T18:19:08.462Z,49.30
2019-05-11T18:21:38.701Z,49.20
2019-05-11T18:24:09.427Z,49.30
2019-05-11T18:26:38.497Z,49.70
2019-05-11T18:29:07.783Z,50.40
2019-05-11T18:31:38.335Z,51.20
2019-05-11T18:34:08.946Z,50.80
2019-05-11T18:36:38.359Z,50.30
2019-05-11T18:39:08.337Z,50.80
2019-05-11T18:41:39.101Z,51.10
2019-05-11T18:44:08.408Z,51.30
2019-05-11T18:46:38.942Z,50.90
2019-05-11T18:49:08.194Z,51.00
2019-05-11T18:51:37.810Z,51.40
2019-05-11T18:54:09.346Z,51.50
2019-05-11T18:56:38.419Z,52.20
2019-05-11T18:59:08.924Z,52.70
2019-05-11T19:01:38.367Z,52.40
2019-05-11T19:04:07.971Z,51.60
2019-05-11T19:06:37.879Z,51.80
2019-05-11T19:09:07.934Z,52.30
2019-05-11T19:11:38.349Z,51.80
2019-05-11T19:14:08.541Z,51.70
2019-05-11T19:16:39.007Z,52.70
2019-05-11T19:19:08.342Z,53.30
2019-05-11T19:21:37.406Z,53.70
2019-05-11T19:24:09.186Z,53.90
2019-05-11T19:26:37.444Z,53.70
2019-05-11T19:29:08.738Z,53.50
2019-05-11T19:31:38.602Z,52.90
2019-05-11T19:34:09.074Z,53.60
2019-05-11T19:36:38.318Z,52.90
2019-05-11T19:39:09.065Z,53.10
2019-05-11T19:41:38.285Z,52.80
2019-05-11T19:44:08.552Z,53.50
2019-05-11T19:46:38.860Z,52.80
2019-05-11T19:49:08.597Z,53.10
2019-05-11T19:51:42.331Z,53.80
2019-05-11T19:54:08.623Z,54.80
2019-05-11T19:56:38.408Z,53.60
2019-05-11T19:59:08.535Z,53.90
2019-05-11T20:01:37.660Z,55.20
2019-05-11T20:04:08.214Z,55.30
2019-05-11T20:06:38.603Z,53.80
2019-05-11T20:09:08.820Z,53.30
2019-05-11T20:11:38.497Z,55.00
2019-05-11T20:14:08.113Z,55.30
2019-05-11T20:16:37.458Z,54.60
2019-05-11T20:19:08.667Z,55.10
2019-05-11T20:21:38.234Z,54.30
2019-05-11T20:24:08.583Z,56.10
2019-05-11T20:26:37.901Z,55.70
2019-05-11T20:29:08.103Z,55.90
2019-05-11T20:31:37.583Z,55.50
2019-05-11T20:34:07.009Z,55.00
2019-05-11T20:36:36.012Z,55.40
2019-05-11T20:39:07.121Z,56.20
2019-05-11T20:41:38.328Z,55.10
2019-05-11T20:44:08.702Z,55.40
2019-05-11T20:46:38.343Z,56.20
2019-05-11T20:49:07.547Z,56.20
2019-05-11T20:51:37.281Z,57.20
2019-05-11T20:54:08.629Z,57.10
2019-05-11T20:56:38.830Z,57.90
2019-05-11T20:59:08.505Z,57.70
2019-05-11T21:01:38.770Z,57.90
2019-05-11T21:04:08.476Z,57.40
2019-05-11T21:06:37.882Z,58.00
2019-05-11T21:09:07.933Z,57.60
2019-05-11T21:11:37.214Z,57.90
2019-05-11T21:14:08.008Z,58.70
2019-05-11T21:16:38.640Z,58.10
2019-05-11T21:19:08.173Z,58.70
2019-05-11T21:21:49.500Z,59.30
2019-05-11T21:24:08.665Z,58.90
2019-05-11T21:26:38.493Z,58.10
2019-05-11T21:29:08.576Z,58.90
2019-05-11T21:31:40.582Z,59.70
2019-05-11T21:34:08.691Z,59.60
2019-05-11T21:36:37.961Z,60.10
2019-05-11T21:39:08.915Z,60.30
2019-05-11T21:41:38.711Z,60.20
2019-05-11T21:44:08.460Z,59.80
2019-05-11T21:46:38.847Z,59.10
2019-05-11T21:49:08.085Z,59.90
2019-05-11T21:51:38.103Z,60.00
2019-05-11T21:54:07.190Z,60.90
2019-05-11T21:56:38.058Z,60.90
2019-05-11T21:59:07.978Z,61.70
2019-05-11T22:01:38.480Z,61.40
2019-05-11T22:04:10.952Z,61.10
2019-05-11T22:06:39.062Z,61.50
2019-05-11T22:09:09.037Z,62.00
2019-05-11T22:11:38.215Z,62.10
2019-05-11T22:14:08.352Z,63.10
2019-05-11T22:16:38.774Z,63.60
2019-05-11T22:19:09.043Z,63.00
2019-05-11T22:21:38.157Z,63.20
2019-05-11T22:24:08.609Z,62.70
2019-05-11T22:26:38.099Z,63.50
2019-05-11T22:29:07.900Z,62.70
2019-05-11T22:31:38.294Z,63.00
2019-05-11T22:34:08.893Z,62.50
2019-05-11T22:36:38.510Z,62.00
2019-05-11T22:39:08.847Z,62.20
2019-05-11T22:41:39.626Z,62.80
2019-05-11T22:44:10.999Z,64.10
2019-05-11T22:46:39.197Z,64.30
2019-05-11T22:49:08.532Z,63.20
2019-05-11T22:51:37.711Z,62.10
2019-05-11T22:54:08.121Z,62.60
2019-05-11T22:56:38.046Z,63.90
2019-05-11T22:59:08.258Z,64.30
2019-05-11T23:01:38.097Z,63.80
2019-05-11T23:04:07.346Z,63.20
2019-05-11T23:06:40.293Z,62.20
2019-05-11T23:09:08.051Z,62.90
2019-05-11T23:11:37.932Z,61.90
2019-05-11T23:14:09.896Z,61.50
2019-05-11T23:16:38.074Z,62.60
2019-05-11T23:19:09.489Z,62.80
2019-05-11T23:21:38.793Z,63.10
2019-05-11T23:24:08.462Z,62.70
2019-05-11T23:26:38.629Z,62.60
2019-05-11T23:29:08.193Z,62.10
2019-05-11T23:31:38.296Z,63.90
2019-05-11T23:34:08.343Z,63.00
2019-05-11T23:36:38.303Z,62.90
2019-05-11T23:39:09.102Z,62.50
2019-05-11T23:41:38.515Z,63.70
2019-05-11T23:44:08.920Z,64.70
2019-05-11T23:46:38.743Z,65.80
2019-05-11T23:49:08.786Z,66.60
2019-05-11T23:51:38.671Z,66.00
2019-05-11T23:54:08.063Z,65.60
2019-05-11T23:56:38.660Z,65.00
2019-05-11T23:59:08.457Z,65.50
